sensor_id;sensor_type;location;lat;lon;timestamp;temperature;humidity
22629;DHT22;11481;53.694;9.910;2023-09-19T00:00:26;18.10;99.90
22629;DHT22;11481;53.694;9.910;2023-09-19T00:02:57;18.00;99.90
22629;DHT22;11481;53.694;9.910;2023-09-19T00:05:26;18.10;99.90
22629;DHT22;11481;53.694;9.910;2023-09-19T00:07:57;18.10;99.90
22629;DHT22;11481;53.694;9.910;2023-09-19T00:10:27;18.00;99.90
22629;DHT22;11481;53.694;9.910;2023-09-19T00:12:58;17.90;99.90
22629;DHT22;11481;53.694;9.910;2023-09-19T00:15:36;17.80;99.90
22629;DHT22;11481;53.694;9.910;2023-09-19T00:18:05;17.80;99.90
22629;DHT22;11481;53.694;9.910;2023-09-19T00:20:36;17.80;99.90
22629;DHT22;11481;53.694;9.910;2023-09-19T00:23:03;17.80;99.90
22629;DHT22;11481;53.694;9.910;2023-09-19T00:25:31;17.70;99.90
22629;DHT22;11481;53.694;9.910;2023-09-19T00:28:02;17.70;99.90
22629;DHT22;11481;53.694;9.910;2023-09-19T00:30:29;17.70;99.90
22629;DHT22;11481;53.694;9.910;2023-09-19T00:32:55;17.70;99.90
22629;DHT22;11481;53.694;9.910;2023-09-19T00:35:22;17.70;99.90
22629;DHT22;11481;53.694;9.910;2023-09-19T00:37:52;17.70;99.90
22629;DHT22;11481;53.694;9.910;2023-09-19T00:40:20;17.60;99.90
22629;DHT22;11481;53.694;9.910;2023-09-19T00:42:48;17.70;99.90
22629;DHT22;11481;53.694;9.910;2023-09-19T00:45:17;17.60;99.90
22629;DHT22;11481;53.694;9.910;2023-09-19T00:47:48;17.60;99.90
22629;DHT22;11481;53.694;9.910;2023-09-19T00:50:21;17.60;99.90
22629;DHT22;11481;53.694;9.910;2023-09-19T00:52:49;17.60;99.90
22629;DHT22;11481;53.694;9.910;2023-09-19T00:55:17;17.50;99.90
22629;DHT22;11481;53.694;9.910;2023-09-19T00:57:47;17.50;99.90
22629;DHT22;11481;53.694;9.910;2023-09-19T01:00:16;17.40;99.90
22629;DHT22;11481;53.694;9.910;2023-09-19T01:02:46;17.40;99.90
22629;DHT22;11481;53.694;9.910;2023-09-19T01:05:13;17.40;99.90
22629;DHT22;11481;53.694;9.910;2023-09-19T01:07:40;17.50;99.90
22629;DHT22;11481;53.694;9.910;2023-09-19T01:10:17;17.50;99.90
22629;DHT22;11481;53.694;9.910;2023-09-19T01:13:18;17.50;99.90
22629;DHT22;11481;53.694;9.910;2023-09-19T01:16:19;17.50;99.90
22629;DHT22;11481;53.694;9.910;2023-09-19T01:19:06;17.50;99.90
22629;DHT22;11481;53.694;9.910;2023-09-19T01:21:42;17.50;99.90
22629;DHT22;11481;53.694;9.910;2023-09-19T01:27:33;17.50;99.90
22629;DHT22;11481;53.694;9.910;2023-09-19T01:30:16;17.50;99.90
22629;DHT22;11481;53.694;9.910;2023-09-19T01:32:44;17.40;99.90
22629;DHT22;11481;53.694;9.910;2023-09-19T01:35:13;17.40;99.90
22629;DHT22;11481;53.694;9.910;2023-09-19T01:37:40;17.40;99.90
22629;DHT22;11481;53.694;9.910;2023-09-19T01:40:14;17.50;99.90
22629;DHT22;11481;53.694;9.910;2023-09-19T01:42:59;17.40;99.90
22629;DHT22;11481;53.694;9.910;2023-09-19T01:48:25;17.30;99.90
22629;DHT22;11481;53.694;9.910;2023-09-19T01:51:03;17.40;99.90
22629;DHT22;11481;53.694;9.910;2023-09-19T01:53:51;17.30;99.90
22629;DHT22;11481;53.694;9.910;2023-09-19T01:56:28;17.30;99.90
22629;DHT22;11481;53.694;9.910;2023-09-19T01:58:59;17.20;99.90
22629;DHT22;11481;53.694;9.910;2023-09-19T02:01:28;17.20;99.90
22629;DHT22;11481;53.694;9.910;2023-09-19T02:03:55;17.20;99.90
22629;DHT22;11481;53.694;9.910;2023-09-19T02:06:23;17.10;99.90
22629;DHT22;11481;53.694;9.910;2023-09-19T02:08:51;17.10;99.90
22629;DHT22;11481;53.694;9.910;2023-09-19T02:11:18;17.20;99.90
22629;DHT22;11481;53.694;9.910;2023-09-19T02:13:44;17.00;99.90
22629;DHT22;11481;53.694;9.910;2023-09-19T02:16:12;17.10;99.90
22629;DHT22;11481;53.694;9.910;2023-09-19T02:18:39;16.90;99.90
22629;DHT22;11481;53.694;9.910;2023-09-19T02:21:06;16.90;99.90
22629;DHT22;11481;53.694;9.910;2023-09-19T02:23:38;16.90;99.90
22629;DHT22;11481;53.694;9.910;2023-09-19T02:26:05;16.90;99.90
22629;DHT22;11481;53.694;9.910;2023-09-19T02:28:32;16.90;99.90
22629;DHT22;11481;53.694;9.910;2023-09-19T02:31:00;16.90;99.90
22629;DHT22;11481;53.694;9.910;2023-09-19T02:33:28;16.90;99.90
22629;DHT22;11481;53.694;9.910;2023-09-19T02:35:59;16.80;99.90
22629;DHT22;11481;53.694;9.910;2023-09-19T02:38:27;16.70;99.90
22629;DHT22;11481;53.694;9.910;2023-09-19T02:40:54;16.70;99.90
22629;DHT22;11481;53.694;9.910;2023-09-19T02:43:22;16.80;99.90
22629;DHT22;11481;53.694;9.910;2023-09-19T02:45:50;16.90;99.90
22629;DHT22;11481;53.694;9.910;2023-09-19T02:48:16;16.80;99.90
22629;DHT22;11481;53.694;9.910;2023-09-19T02:50:45;16.80;99.90
22629;DHT22;11481;53.694;9.910;2023-09-19T02:53:12;16.80;99.90
22629;DHT22;11481;53.694;9.910;2023-09-19T02:55:39;16.80;99.90
22629;DHT22;11481;53.694;9.910;2023-09-19T02:58:09;16.90;99.90
22629;DHT22;11481;53.694;9.910;2023-09-19T03:00:38;16.80;99.90
22629;DHT22;11481;53.694;9.910;2023-09-19T03:03:05;16.70;99.90
22629;DHT22;11481;53.694;9.910;2023-09-19T03:05:35;16.80;99.90
22629;DHT22;11481;53.694;9.910;2023-09-19T03:08:01;16.70;99.90
22629;DHT22;11481;53.694;9.910;2023-09-19T03:10:29;16.70;99.90
22629;DHT22;11481;53.694;9.910;2023-09-19T03:12:57;16.50;99.90
22629;DHT22;11481;53.694;9.910;2023-09-19T03:15:26;16.50;99.90
22629;DHT22;11481;53.694;9.910;2023-09-19T03:17:53;16.50;99.90
22629;DHT22;11481;53.694;9.910;2023-09-19T03:20:20;16.50;99.90
22629;DHT22;11481;53.694;9.910;2023-09-19T03:22:47;16.50;99.90
22629;DHT22;11481;53.694;9.910;2023-09-19T03:25:15;16.50;99.90
22629;DHT22;11481;53.694;9.910;2023-09-19T03:27:44;16.50;99.90
22629;DHT22;11481;53.694;9.910;2023-09-19T03:30:11;16.50;99.90
22629;DHT22;11481;53.694;9.910;2023-09-19T03:32:44;16.50;99.90
22629;DHT22;11481;53.694;9.910;2023-09-19T03:35:12;16.50;99.90
22629;DHT22;11481;53.694;9.910;2023-09-19T03:37:41;16.40;99.90
22629;DHT22;11481;53.694;9.910;2023-09-19T03:40:09;16.40;99.90
22629;DHT22;11481;53.694;9.910;2023-09-19T03:42:41;16.50;99.90
22629;DHT22;11481;53.694;9.910;2023-09-19T03:45:08;16.40;99.90
22629;DHT22;11481;53.694;9.910;2023-09-19T03:47:39;16.50;99.90
22629;DHT22;11481;53.694;9.910;2023-09-19T03:50:07;16.40;99.90
22629;DHT22;11481;53.694;9.910;2023-09-19T03:52:34;16.40;99.90
22629;DHT22;11481;53.694;9.910;2023-09-19T03:55:01;16.20;99.90
22629;DHT22;11481;53.694;9.910;2023-09-19T03:57:31;16.20;99.90
22629;DHT22;11481;53.694;9.910;2023-09-19T03:59:57;16.20;99.90
22629;DHT22;11481;53.694;9.910;2023-09-19T04:02:24;16.10;99.90
22629;DHT22;11481;53.694;9.910;2023-09-19T04:04:52;16.10;99.90
22629;DHT22;11481;53.694;9.910;2023-09-19T04:07:19;16.20;99.90
22629;DHT22;11481;53.694;9.910;2023-09-19T04:09:48;16.10;99.90
22629;DHT22;11481;53.694;9.910;2023-09-19T04:12:15;16.10;99.90
22629;DHT22;11481;53.694;9.910;2023-09-19T04:14:45;16.10;99.90
22629;DHT22;11481;53.694;9.910;2023-09-19T04:17:11;16.10;99.90
22629;DHT22;11481;53.694;9.910;2023-09-19T04:19:38;16.20;99.90
22629;DHT22;11481;53.694;9.910;2023-09-19T04:22:05;16.10;99.90
22629;DHT22;11481;53.694;9.910;2023-09-19T04:24:32;16.10;99.90
22629;DHT22;11481;53.694;9.910;2023-09-19T04:26:59;16.10;99.90
22629;DHT22;11481;53.694;9.910;2023-09-19T04:29:26;16.10;99.90
22629;DHT22;11481;53.694;9.910;2023-09-19T04:31:56;16.10;99.90
22629;DHT22;11481;53.694;9.910;2023-09-19T04:34:23;16.10;99.90
22629;DHT22;11481;53.694;9.910;2023-09-19T04:36:51;15.90;99.90
22629;DHT22;11481;53.694;9.910;2023-09-19T04:39:17;15.90;99.90
22629;DHT22;11481;53.694;9.910;2023-09-19T04:41:44;15.70;99.90
22629;DHT22;11481;53.694;9.910;2023-09-19T04:44:12;15.60;99.90
22629;DHT22;11481;53.694;9.910;2023-09-19T04:46:39;15.60;99.90
22629;DHT22;11481;53.694;9.910;2023-09-19T04:49:06;15.60;99.90
22629;DHT22;11481;53.694;9.910;2023-09-19T04:51:32;15.60;99.90
22629;DHT22;11481;53.694;9.910;2023-09-19T04:54:01;15.40;99.90
22629;DHT22;11481;53.694;9.910;2023-09-19T04:56:28;15.40;99.90
22629;DHT22;11481;53.694;9.910;2023-09-19T04:58:55;15.40;99.90
22629;DHT22;11481;53.694;9.910;2023-09-19T05:01:22;15.40;99.90
22629;DHT22;11481;53.694;9.910;2023-09-19T05:03:49;15.30;99.90
22629;DHT22;11481;53.694;9.910;2023-09-19T05:06:22;15.40;99.90
22629;DHT22;11481;53.694;9.910;2023-09-19T05:08:49;15.40;99.90
22629;DHT22;11481;53.694;9.910;2023-09-19T05:11:22;15.30;99.90
22629;DHT22;11481;53.694;9.910;2023-09-19T05:13:49;15.40;99.90
22629;DHT22;11481;53.694;9.910;2023-09-19T05:16:19;15.50;99.90
22629;DHT22;11481;53.694;9.910;2023-09-19T05:18:47;15.50;99.90
22629;DHT22;11481;53.694;9.910;2023-09-19T05:21:13;15.40;99.90
22629;DHT22;11481;53.694;9.910;2023-09-19T05:23:40;15.40;99.90
22629;DHT22;11481;53.694;9.910;2023-09-19T05:26:08;15.40;99.90
22629;DHT22;11481;53.694;9.910;2023-09-19T05:28:35;15.40;99.90
22629;DHT22;11481;53.694;9.910;2023-09-19T05:31:02;15.30;99.90
22629;DHT22;11481;53.694;9.910;2023-09-19T05:33:29;15.30;99.90
22629;DHT22;11481;53.694;9.910;2023-09-19T05:35:58;15.30;99.90
22629;DHT22;11481;53.694;9.910;2023-09-19T05:38:25;15.20;99.90
22629;DHT22;11481;53.694;9.910;2023-09-19T05:40:54;15.30;99.90
22629;DHT22;11481;53.694;9.910;2023-09-19T05:43:21;15.30;99.90
22629;DHT22;11481;53.694;9.910;2023-09-19T05:45:48;15.30;99.90
22629;DHT22;11481;53.694;9.910;2023-09-19T05:48:19;15.30;99.90
22629;DHT22;11481;53.694;9.910;2023-09-19T05:50:47;15.20;99.90
22629;DHT22;11481;53.694;9.910;2023-09-19T05:53:15;15.20;99.90
22629;DHT22;11481;53.694;9.910;2023-09-19T05:55:42;15.20;99.90
22629;DHT22;11481;53.694;9.910;2023-09-19T05:58:09;15.10;99.90
22629;DHT22;11481;53.694;9.910;2023-09-19T06:00:37;15.10;99.90
22629;DHT22;11481;53.694;9.910;2023-09-19T06:03:05;15.20;99.90
22629;DHT22;11481;53.694;9.910;2023-09-19T06:05:32;15.30;99.90
22629;DHT22;11481;53.694;9.910;2023-09-19T06:07:59;15.30;99.90
22629;DHT22;11481;53.694;9.910;2023-09-19T06:10:27;15.40;99.90
22629;DHT22;11481;53.694;9.910;2023-09-19T06:12:54;15.50;99.90
22629;DHT22;11481;53.694;9.910;2023-09-19T06:15:21;15.50;99.90
22629;DHT22;11481;53.694;9.910;2023-09-19T06:17:53;15.50;99.90
22629;DHT22;11481;53.694;9.910;2023-09-19T06:20:24;15.50;99.90
22629;DHT22;11481;53.694;9.910;2023-09-19T06:22:53;15.50;99.90
22629;DHT22;11481;53.694;9.910;2023-09-19T06:25:20;15.50;99.90
22629;DHT22;11481;53.694;9.910;2023-09-19T06:27:50;15.50;99.90
22629;DHT22;11481;53.694;9.910;2023-09-19T06:30:21;15.40;99.90
22629;DHT22;11481;53.694;9.910;2023-09-19T06:32:58;15.50;99.90
22629;DHT22;11481;53.694;9.910;2023-09-19T06:35:26;15.50;99.90
22629;DHT22;11481;53.694;9.910;2023-09-19T06:37:53;15.50;99.90
22629;DHT22;11481;53.694;9.910;2023-09-19T06:40:20;15.50;99.90
22629;DHT22;11481;53.694;9.910;2023-09-19T06:42:50;15.50;99.90
22629;DHT22;11481;53.694;9.910;2023-09-19T06:45:18;15.40;99.90
22629;DHT22;11481;53.694;9.910;2023-09-19T06:47:46;15.50;99.90
22629;DHT22;11481;53.694;9.910;2023-09-19T06:50:18;15.50;99.90
22629;DHT22;11481;53.694;9.910;2023-09-19T06:52:46;15.60;99.90
22629;DHT22;11481;53.694;9.910;2023-09-19T06:55:17;15.70;99.90
22629;DHT22;11481;53.694;9.910;2023-09-19T06:57:44;15.60;99.90
22629;DHT22;11481;53.694;9.910;2023-09-19T07:00:12;15.60;99.90
22629;DHT22;11481;53.694;9.910;2023-09-19T07:02:42;15.60;99.90
22629;DHT22;11481;53.694;9.910;2023-09-19T07:05:09;15.60;99.90
22629;DHT22;11481;53.694;9.910;2023-09-19T07:07:36;15.60;99.90
22629;DHT22;11481;53.694;9.910;2023-09-19T07:10:03;15.70;99.90
22629;DHT22;11481;53.694;9.910;2023-09-19T07:12:36;15.70;99.90
22629;DHT22;11481;53.694;9.910;2023-09-19T07:15:03;15.80;99.90
22629;DHT22;11481;53.694;9.910;2023-09-19T07:17:32;15.80;99.90
22629;DHT22;11481;53.694;9.910;2023-09-19T07:19:59;15.80;99.90
22629;DHT22;11481;53.694;9.910;2023-09-19T07:22:26;15.90;99.90
22629;DHT22;11481;53.694;9.910;2023-09-19T07:24:53;15.90;99.90
22629;DHT22;11481;53.694;9.910;2023-09-19T07:27:21;15.80;99.90
22629;DHT22;11481;53.694;9.910;2023-09-19T07:29:48;15.90;99.90
22629;DHT22;11481;53.694;9.910;2023-09-19T07:32:18;15.90;99.90
22629;DHT22;11481;53.694;9.910;2023-09-19T07:34:46;15.90;99.90
22629;DHT22;11481;53.694;9.910;2023-09-19T07:37:13;16.00;99.90
22629;DHT22;11481;53.694;9.910;2023-09-19T07:39:42;16.00;99.90
22629;DHT22;11481;53.694;9.910;2023-09-19T07:42:10;15.90;99.90
22629;DHT22;11481;53.694;9.910;2023-09-19T07:44:40;16.00;99.90
22629;DHT22;11481;53.694;9.910;2023-09-19T07:47:07;15.90;99.90
22629;DHT22;11481;53.694;9.910;2023-09-19T07:49:33;16.00;99.90
22629;DHT22;11481;53.694;9.910;2023-09-19T07:52:00;15.90;99.90
22629;DHT22;11481;53.694;9.910;2023-09-19T07:54:27;16.00;99.90
22629;DHT22;11481;53.694;9.910;2023-09-19T07:56:56;16.10;99.90
22629;DHT22;11481;53.694;9.910;2023-09-19T07:59:24;16.10;99.90
22629;DHT22;11481;53.694;9.910;2023-09-19T08:01:51;16.00;99.90
22629;DHT22;11481;53.694;9.910;2023-09-19T08:04:18;15.90;99.90
22629;DHT22;11481;53.694;9.910;2023-09-19T08:06:46;16.00;99.90
22629;DHT22;11481;53.694;9.910;2023-09-19T08:09:12;16.00;99.90
22629;DHT22;11481;53.694;9.910;2023-09-19T08:11:50;16.00;99.90
22629;DHT22;11481;53.694;9.910;2023-09-19T08:14:17;16.00;99.90
22629;DHT22;11481;53.694;9.910;2023-09-19T08:16:44;15.90;99.90
22629;DHT22;11481;53.694;9.910;2023-09-19T08:19:11;16.00;99.90
22629;DHT22;11481;53.694;9.910;2023-09-19T08:21:37;16.00;99.90
22629;DHT22;11481;53.694;9.910;2023-09-19T08:24:04;16.10;99.90
22629;DHT22;11481;53.694;9.910;2023-09-19T08:26:31;16.00;99.90
22629;DHT22;11481;53.694;9.910;2023-09-19T08:28:58;16.10;99.90
22629;DHT22;11481;53.694;9.910;2023-09-19T08:31:25;16.20;99.90
22629;DHT22;11481;53.694;9.910;2023-09-19T08:33:53;16.20;99.90
22629;DHT22;11481;53.694;9.910;2023-09-19T08:36:22;16.30;99.90
22629;DHT22;11481;53.694;9.910;2023-09-19T08:38:49;16.20;99.90
22629;DHT22;11481;53.694;9.910;2023-09-19T08:41:17;16.10;99.90
22629;DHT22;11481;53.694;9.910;2023-09-19T08:43:44;16.80;99.90
22629;DHT22;11481;53.694;9.910;2023-09-19T08:46:16;16.20;99.90
22629;DHT22;11481;53.694;9.910;2023-09-19T08:49:00;16.30;99.90
22629;DHT22;11481;53.694;9.910;2023-09-19T08:51:41;16.30;99.90
22629;DHT22;11481;53.694;9.910;2023-09-19T08:54:32;16.30;99.90
22629;DHT22;11481;53.694;9.910;2023-09-19T08:57:06;16.20;99.90
22629;DHT22;11481;53.694;9.910;2023-09-19T08:59:38;16.20;99.90
22629;DHT22;11481;53.694;9.910;2023-09-19T09:02:11;16.20;99.90
22629;DHT22;11481;53.694;9.910;2023-09-19T09:04:43;16.20;99.90
22629;DHT22;11481;53.694;9.910;2023-09-19T09:07:11;16.20;99.90
22629;DHT22;11481;53.694;9.910;2023-09-19T09:09:43;16.20;99.90
22629;DHT22;11481;53.694;9.910;2023-09-19T09:12:14;16.30;99.90
22629;DHT22;11481;53.694;9.910;2023-09-19T09:14:45;16.20;99.90
22629;DHT22;11481;53.694;9.910;2023-09-19T09:17:16;16.30;99.90
22629;DHT22;11481;53.694;9.910;2023-09-19T09:19:47;16.30;99.90
22629;DHT22;11481;53.694;9.910;2023-09-19T09:22:14;16.30;99.90
22629;DHT22;11481;53.694;9.910;2023-09-19T09:24:54;16.30;99.90
22629;DHT22;11481;53.694;9.910;2023-09-19T09:27:25;16.50;99.90
22629;DHT22;11481;53.694;9.910;2023-09-19T09:29:52;16.60;99.90
22629;DHT22;11481;53.694;9.910;2023-09-19T09:32:26;16.60;99.90
22629;DHT22;11481;53.694;9.910;2023-09-19T09:34:56;16.60;99.90
22629;DHT22;11481;53.694;9.910;2023-09-19T09:37:28;16.70;99.90
22629;DHT22;11481;53.694;9.910;2023-09-19T09:40:01;16.80;99.90
22629;DHT22;11481;53.694;9.910;2023-09-19T09:42:44;16.80;99.90
22629;DHT22;11481;53.694;9.910;2023-09-19T09:45:20;17.00;99.90
22629;DHT22;11481;53.694;9.910;2023-09-19T09:48:00;17.10;99.90
22629;DHT22;11481;53.694;9.910;2023-09-19T09:50:33;17.20;99.90
22629;DHT22;11481;53.694;9.910;2023-09-19T09:53:39;17.00;99.90
22629;DHT22;11481;53.694;9.910;2023-09-19T09:56:07;17.20;99.90
22629;DHT22;11481;53.694;9.910;2023-09-19T09:58:37;17.30;99.90
22629;DHT22;11481;53.694;9.910;2023-09-19T10:01:04;17.40;99.90
22629;DHT22;11481;53.694;9.910;2023-09-19T10:03:42;17.50;99.90
22629;DHT22;11481;53.694;9.910;2023-09-19T10:06:15;17.50;99.90
22629;DHT22;11481;53.694;9.910;2023-09-19T10:09:06;17.60;99.90
22629;DHT22;11481;53.694;9.910;2023-09-19T10:12:15;17.40;99.90
22629;DHT22;11481;53.694;9.910;2023-09-19T10:14:43;17.50;99.90
22629;DHT22;11481;53.694;9.910;2023-09-19T10:17:15;17.50;99.90
22629;DHT22;11481;53.694;9.910;2023-09-19T10:19:55;17.50;99.90
22629;DHT22;11481;53.694;9.910;2023-09-19T10:22:26;17.50;99.90
22629;DHT22;11481;53.694;9.910;2023-09-19T10:24:59;17.40;99.90
22629;DHT22;11481;53.694;9.910;2023-09-19T10:27:29;17.40;99.90
22629;DHT22;11481;53.694;9.910;2023-09-19T10:30:06;17.70;99.90
22629;DHT22;11481;53.694;9.910;2023-09-19T10:32:35;17.90;99.90
22629;DHT22;11481;53.694;9.910;2023-09-19T10:35:02;17.80;99.90
22629;DHT22;11481;53.694;9.910;2023-09-19T10:37:32;17.90;99.90
22629;DHT22;11481;53.694;9.910;2023-09-19T10:40:00;18.00;99.90
22629;DHT22;11481;53.694;9.910;2023-09-19T10:42:27;18.10;99.90
22629;DHT22;11481;53.694;9.910;2023-09-19T10:44:58;17.90;99.90
22629;DHT22;11481;53.694;9.910;2023-09-19T10:47:26;17.90;99.90
22629;DHT22;11481;53.694;9.910;2023-09-19T10:49:53;17.90;99.90
22629;DHT22;11481;53.694;9.910;2023-09-19T10:52:24;17.90;99.90
22629;DHT22;11481;53.694;9.910;2023-09-19T10:54:53;17.90;99.90
22629;DHT22;11481;53.694;9.910;2023-09-19T10:57:24;18.00;99.90
22629;DHT22;11481;53.694;9.910;2023-09-19T11:00:05;18.20;99.90
22629;DHT22;11481;53.694;9.910;2023-09-19T11:03:16;18.20;99.90
22629;DHT22;11481;53.694;9.910;2023-09-19T11:06:04;18.20;99.90
22629;DHT22;11481;53.694;9.910;2023-09-19T11:09:01;18.20;99.90
22629;DHT22;11481;53.694;9.910;2023-09-19T11:11:40;18.20;99.90
22629;DHT22;11481;53.694;9.910;2023-09-19T11:14:40;18.20;99.90
22629;DHT22;11481;53.694;9.910;2023-09-19T11:30:37;18.60;99.90
22629;DHT22;11481;53.694;9.910;2023-09-19T11:33:20;18.70;99.90
22629;DHT22;11481;53.694;9.910;2023-09-19T11:36:02;18.50;99.90
22629;DHT22;11481;53.694;9.910;2023-09-19T11:49:29;18.50;99.90
22629;DHT22;11481;53.694;9.910;2023-09-19T11:51:57;18.40;99.90
22629;DHT22;11481;53.694;9.910;2023-09-19T11:54:24;18.60;99.90
22629;DHT22;11481;53.694;9.910;2023-09-19T11:56:55;18.60;99.90
22629;DHT22;11481;53.694;9.910;2023-09-19T11:59:23;18.50;99.90
22629;DHT22;11481;53.694;9.910;2023-09-19T12:01:52;18.70;99.90
22629;DHT22;11481;53.694;9.910;2023-09-19T12:04:40;18.60;99.90
22629;DHT22;11481;53.694;9.910;2023-09-19T12:07:10;18.40;99.90
22629;DHT22;11481;53.694;9.910;2023-09-19T12:09:41;18.30;99.90
22629;DHT22;11481;53.694;9.910;2023-09-19T12:12:23;18.30;99.90
22629;DHT22;11481;53.694;9.910;2023-09-19T12:14:54;18.40;99.90
22629;DHT22;11481;53.694;9.910;2023-09-19T12:17:38;18.60;99.90
22629;DHT22;11481;53.694;9.910;2023-09-19T12:20:05;18.80;99.90
22629;DHT22;11481;53.694;9.910;2023-09-19T12:22:44;18.90;99.90
22629;DHT22;11481;53.694;9.910;2023-09-19T12:25:13;19.00;99.90
22629;DHT22;11481;53.694;9.910;2023-09-19T12:27:47;18.90;99.90
22629;DHT22;11481;53.694;9.910;2023-09-19T12:30:15;18.90;99.90
22629;DHT22;11481;53.694;9.910;2023-09-19T12:32:53;19.00;99.90
22629;DHT22;11481;53.694;9.910;2023-09-19T12:35:31;19.00;99.90
22629;DHT22;11481;53.694;9.910;2023-09-19T12:38:02;19.00;99.90
22629;DHT22;11481;53.694;9.910;2023-09-19T12:40:30;19.10;99.90
22629;DHT22;11481;53.694;9.910;2023-09-19T12:43:00;19.10;99.90
22629;DHT22;11481;53.694;9.910;2023-09-19T12:45:30;19.20;99.90
22629;DHT22;11481;53.694;9.910;2023-09-19T12:51:01;19.40;99.90
22629;DHT22;11481;53.694;9.910;2023-09-19T12:53:30;19.30;99.90
22629;DHT22;11481;53.694;9.910;2023-09-19T12:55:59;19.30;99.90
22629;DHT22;11481;53.694;9.910;2023-09-19T12:58:26;19.20;99.90
22629;DHT22;11481;53.694;9.910;2023-09-19T13:00:53;19.30;99.90
22629;DHT22;11481;53.694;9.910;2023-09-19T13:03:26;19.20;99.90
22629;DHT22;11481;53.694;9.910;2023-09-19T13:08:28;19.30;99.90
22629;DHT22;11481;53.694;9.910;2023-09-19T13:16:23;19.50;99.90
22629;DHT22;11481;53.694;9.910;2023-09-19T13:18:53;19.40;99.90
22629;DHT22;11481;53.694;9.910;2023-09-19T13:21:32;19.70;99.90
22629;DHT22;11481;53.694;9.910;2023-09-19T13:24:22;19.70;99.90
22629;DHT22;11481;53.694;9.910;2023-09-19T13:26:52;19.60;99.90
22629;DHT22;11481;53.694;9.910;2023-09-19T13:29:19;19.70;99.90
22629;DHT22;11481;53.694;9.910;2023-09-19T13:31:50;19.70;99.90
22629;DHT22;11481;53.694;9.910;2023-09-19T13:34:19;19.50;99.90
22629;DHT22;11481;53.694;9.910;2023-09-19T13:36:47;19.40;99.90
22629;DHT22;11481;53.694;9.910;2023-09-19T13:39:17;19.30;99.90
22629;DHT22;11481;53.694;9.910;2023-09-19T13:41:45;19.20;99.90
22629;DHT22;11481;53.694;9.910;2023-09-19T13:44:13;19.20;99.90
22629;DHT22;11481;53.694;9.910;2023-09-19T13:46:40;19.50;99.90
22629;DHT22;11481;53.694;9.910;2023-09-19T13:49:11;19.70;99.90
22629;DHT22;11481;53.694;9.910;2023-09-19T13:51:38;19.90;99.90
22629;DHT22;11481;53.694;9.910;2023-09-19T13:54:05;20.00;99.90
22629;DHT22;11481;53.694;9.910;2023-09-19T13:56:32;20.10;99.90
22629;DHT22;11481;53.694;9.910;2023-09-19T13:59:00;20.10;99.90
22629;DHT22;11481;53.694;9.910;2023-09-19T14:01:26;20.10;99.90
22629;DHT22;11481;53.694;9.910;2023-09-19T14:03:53;19.90;99.90
22629;DHT22;11481;53.694;9.910;2023-09-19T14:06:23;20.10;99.90
22629;DHT22;11481;53.694;9.910;2023-09-19T14:08:50;20.00;99.90
22629;DHT22;11481;53.694;9.910;2023-09-19T14:11:17;20.10;99.90
22629;DHT22;11481;53.694;9.910;2023-09-19T14:13:43;20.40;99.90
22629;DHT22;11481;53.694;9.910;2023-09-19T14:16:16;20.40;99.90
22629;DHT22;11481;53.694;9.910;2023-09-19T14:18:45;20.40;99.90
22629;DHT22;11481;53.694;9.910;2023-09-19T14:21:12;20.50;99.90
22629;DHT22;11481;53.694;9.910;2023-09-19T14:23:41;20.80;99.90
22629;DHT22;11481;53.694;9.910;2023-09-19T14:26:11;20.80;99.90
22629;DHT22;11481;53.694;9.910;2023-09-19T14:28:38;20.80;99.90
22629;DHT22;11481;53.694;9.910;2023-09-19T14:31:09;20.40;99.90
22629;DHT22;11481;53.694;9.910;2023-09-19T14:33:37;20.40;99.90
22629;DHT22;11481;53.694;9.910;2023-09-19T14:36:05;20.40;99.90
22629;DHT22;11481;53.694;9.910;2023-09-19T14:38:37;20.30;99.90
22629;DHT22;11481;53.694;9.910;2023-09-19T14:41:06;20.20;99.90
22629;DHT22;11481;53.694;9.910;2023-09-19T14:43:33;20.00;99.90
22629;DHT22;11481;53.694;9.910;2023-09-19T14:46:06;19.90;99.90
22629;DHT22;11481;53.694;9.910;2023-09-19T14:48:39;20.00;99.90
22629;DHT22;11481;53.694;9.910;2023-09-19T14:51:07;19.70;99.90
22629;DHT22;11481;53.694;9.910;2023-09-19T14:53:38;19.70;99.90
22629;DHT22;11481;53.694;9.910;2023-09-19T14:56:08;19.80;99.90
22629;DHT22;11481;53.694;9.910;2023-09-19T14:58:35;19.80;99.90
22629;DHT22;11481;53.694;9.910;2023-09-19T15:01:09;19.80;99.90
22629;DHT22;11481;53.694;9.910;2023-09-19T15:03:40;19.70;99.90
22629;DHT22;11481;53.694;9.910;2023-09-19T15:06:12;19.70;99.90
22629;DHT22;11481;53.694;9.910;2023-09-19T15:08:44;19.70;99.90
22629;DHT22;11481;53.694;9.910;2023-09-19T15:11:15;19.70;99.90
22629;DHT22;11481;53.694;9.910;2023-09-19T15:13:45;19.70;99.90
22629;DHT22;11481;53.694;9.910;2023-09-19T15:16:12;19.60;99.90
22629;DHT22;11481;53.694;9.910;2023-09-19T15:18:40;19.60;99.90
22629;DHT22;11481;53.694;9.910;2023-09-19T15:21:09;19.50;99.90
22629;DHT22;11481;53.694;9.910;2023-09-19T15:23:39;19.50;99.90
22629;DHT22;11481;53.694;9.910;2023-09-19T15:26:14;19.50;99.90
22629;DHT22;11481;53.694;9.910;2023-09-19T15:28:47;19.60;99.90
22629;DHT22;11481;53.694;9.910;2023-09-19T15:31:14;19.60;99.90
22629;DHT22;11481;53.694;9.910;2023-09-19T15:33:41;19.60;99.90
22629;DHT22;11481;53.694;9.910;2023-09-19T15:36:11;19.50;99.90
22629;DHT22;11481;53.694;9.910;2023-09-19T15:39:02;19.40;99.90
22629;DHT22;11481;53.694;9.910;2023-09-19T15:41:32;19.40;99.90
22629;DHT22;11481;53.694;9.910;2023-09-19T15:44:00;19.50;99.90
22629;DHT22;11481;53.694;9.910;2023-09-19T15:46:29;19.40;99.90
22629;DHT22;11481;53.694;9.910;2023-09-19T15:48:57;19.40;99.90
22629;DHT22;11481;53.694;9.910;2023-09-19T15:51:24;19.40;99.90
22629;DHT22;11481;53.694;9.910;2023-09-19T15:53:52;19.30;99.90
22629;DHT22;11481;53.694;9.910;2023-09-19T15:56:20;19.20;99.90
22629;DHT22;11481;53.694;9.910;2023-09-19T15:58:48;19.30;99.90
22629;DHT22;11481;53.694;9.910;2023-09-19T16:01:16;19.40;99.90
22629;DHT22;11481;53.694;9.910;2023-09-19T16:03:51;19.40;99.90
22629;DHT22;11481;53.694;9.910;2023-09-19T16:06:27;19.40;99.90
22629;DHT22;11481;53.694;9.910;2023-09-19T16:08:58;19.50;99.90
22629;DHT22;11481;53.694;9.910;2023-09-19T16:11:27;19.40;99.90
22629;DHT22;11481;53.694;9.910;2023-09-19T16:13:54;19.40;99.90
22629;DHT22;11481;53.694;9.910;2023-09-19T16:16:22;19.30;99.90
22629;DHT22;11481;53.694;9.910;2023-09-19T16:18:52;19.30;99.90
22629;DHT22;11481;53.694;9.910;2023-09-19T16:21:20;19.30;99.90
22629;DHT22;11481;53.694;9.910;2023-09-19T16:23:48;19.40;99.90
22629;DHT22;11481;53.694;9.910;2023-09-19T16:26:17;19.30;99.90
22629;DHT22;11481;53.694;9.910;2023-09-19T16:28:45;19.30;99.90
22629;DHT22;11481;53.694;9.910;2023-09-19T16:31:12;19.40;99.90